Terminal Aerodrome Forecast
Issued by NWS

Home | Current Version | Previous Version | Text Only | Print | Product List | Glossary On
Versions: 1 2 3 4 5 6 7 8 9 10 11 12 13 14 15 16 17 18 19 20 21 22 23 24 25 26 27 28 29 30
000
FTUS43 KDLH 212339
TAFHYR
TAF
KHYR 212339Z 2200/2224 03008KT P6SM OVC090
     FM220200 04005KT P6SM OVC015
     FM220300 04005KT P6SM OVC008
     FM220400 05006KT P6SM OVC003
     FM221000 05008KT P6SM VCSH OVC003
     FM221500 05011G21KT 6SM -FZDZ OVC008
     FM221600 04012G22KT P6SM -SN OVC008=

USA.gov is the U.S. government's official web portal to all federal, state and local government web resources and services.